Bloomfield, Iowa
Current Conditions -  °F | °C
As of 10:53 AM on Saturday 25 Oct 2014 (Local Time) from KOTM Reporting Station
Clear Clear  
Wind Chill: 64°   Ceiling: Unl
Heat Index: 64°   Visibility: 10mi
Dew Point: 46°   Wind: 8mph
Humidity: 52%   Direction: 360°N
Pressure: 30.08"   Gusts: NA
Location:  40.75°N, 92.41°W
Report Text: KOTM 251553Z AUTO 36007KT 10SM CLR 18/08 A3008 RMK AO2 SLP185 T01780078
Loading
Personal Weather Stations






























Interactive Weather Map New forecast layout! Learn more

10-Day Weather Forecast

Advertisements
Track Severe Weather on mobile